Time;durP1;ratioP1;P1;durP2;ratioP2;P2;SDS_P1;SDS_P2;PMS_P1;PMS_P2;Temp;Humidity;BMP_temperature;BMP_pressure;BME280_temperature;BME280_humidity;BME280_pressure;Samples;Min_cycle;Max_cycle;Signal;HPM_P1;HPM_P2
2023/04/29 00:00:16;;;;;;;8.20;7.10;;;9.20;99.90;11.00;96475.00;;;;5043154;28;20729;-82
2023/04/29 00:03:05;;;;;;;10.40;6.90;;;9.20;99.90;10.90;96458.00;;;;5037119;28;20629;-82
2023/04/29 00:05:54;;;;;;;9.57;7.30;;;9.20;99.90;11.10;96429.00;;;;5047179;28;20227;-82
2023/04/29 00:08:43;;;;;;;8.20;7.40;;;9.20;99.90;10.80;96428.00;;;;5044235;28;20228;-82
2023/04/29 00:11:31;;;;;;;9.90;7.13;;;9.20;99.90;10.90;96418.00;;;;5041684;28;20212;-81
2023/04/29 00:14:20;;;;;;;8.30;7.10;;;9.20;99.90;10.90;96464.00;;;;5047735;28;20205;-82
2023/04/29 00:17:10;;;;;;;13.33;7.47;;;9.20;99.90;11.00;96484.00;;;;5039619;28;20197;-82
2023/04/29 00:19:59;;;;;;;11.30;7.00;;;9.20;99.90;11.20;96467.00;;;;5039142;28;20201;-82
2023/04/29 00:22:48;;;;;;;10.63;6.60;;;9.30;99.90;11.00;96468.00;;;;5049891;28;20205;-82
2023/04/29 00:25:37;;;;;;;11.17;6.43;;;9.30;99.90;11.40;96486.00;;;;5047102;28;20221;-82
2023/04/29 00:28:25;;;;;;;9.93;6.90;;;9.40;99.90;11.30;96485.00;;;;5047245;28;20221;-82
2023/04/29 00:31:14;;;;;;;9.05;7.53;;;9.50;99.90;11.20;96496.00;;;;5044251;28;20390;-81
2023/04/29 00:34:04;;;;;;;6.90;6.17;;;9.50;99.90;11.40;96484.00;;;;5043854;28;20575;-82
2023/04/29 00:36:53;;;;;;;7.03;5.07;;;9.50;99.90;11.40;96489.00;;;;5045525;28;20248;-82
2023/04/29 00:39:42;;;;;;;5.20;4.77;;;9.50;99.90;11.20;96483.00;;;;5047334;28;20213;-82
2023/04/29 00:42:32;;;;;;;5.73;4.70;;;9.50;99.90;11.30;96501.00;;;;5047186;28;20601;-82
2023/04/29 00:45:21;;;;;;;5.23;4.60;;;9.50;99.90;11.30;96498.00;;;;5046898;28;20240;-81
2023/04/29 00:48:10;;;;;;;6.27;5.03;;;9.50;99.90;11.10;96506.00;;;;5043650;28;20225;-81
2023/04/29 00:51:00;;;;;;;7.63;5.10;;;9.40;99.90;11.20;96500.00;;;;5044173;28;20660;-81
2023/04/29 00:53:49;;;;;;;5.73;5.13;;;9.40;99.90;11.20;96491.00;;;;5038787;28;20196;-81
2023/04/29 00:56:40;;;;;;;5.97;5.37;;;9.40;99.90;11.10;96476.00;;;;5039377;28;20224;-81
2023/04/29 00:59:31;;;;;;;5.83;5.00;;;9.40;99.90;11.00;96483.00;;;;5039222;28;20228;-81
2023/04/29 01:02:20;;;;;;;6.27;5.13;;;9.40;99.90;10.70;96477.00;;;;5042734;28;20212;-81
2023/04/29 01:05:09;;;;;;;6.27;5.67;;;9.30;99.90;10.40;96479.00;;;;5042044;28;20220;-81
2023/04/29 01:08:26;;;;;;;7.27;6.43;;;9.20;99.90;10.60;96483.00;;;;5042221;28;20204;-81
2023/04/29 01:11:22;;;;;;;6.57;5.83;;;9.10;99.90;10.30;96487.00;;;;5039593;28;20193;-81
2023/04/29 01:14:11;;;;;;;7.63;6.30;;;9.10;99.90;10.30;96497.00;;;;5044366;28;20258;-81
2023/04/29 01:17:05;;;;;;;6.53;5.90;;;9.00;99.90;10.70;96484.00;;;;5040633;28;20323;-81
2023/04/29 01:19:56;;;;;;;6.00;5.40;;;9.00;99.90;10.70;96480.00;;;;5049201;28;20690;-80
2023/04/29 01:22:46;;;;;;;9.77;5.07;;;9.00;99.90;10.80;96490.00;;;;5050110;28;20231;-81
2023/04/29 01:25:37;;;;;;;6.27;5.40;;;9.00;99.90;10.60;96488.00;;;;5040160;28;20708;-82
2023/04/29 01:28:43;;;;;;;7.57;5.77;;;9.00;99.90;10.30;96506.00;;;;5045454;28;20278;-81
2023/04/29 01:31:40;;;;;;;7.50;5.33;;;9.00;99.90;10.40;96507.00;;;;5040493;28;20213;-81
2023/04/29 01:34:37;;;;;;;5.33;4.83;;;9.00;99.90;10.60;96503.00;;;;5042023;28;20227;-81
2023/04/29 01:37:44;;;;;;;5.03;4.57;;;9.00;99.90;10.50;96495.00;;;;5035093;28;20279;-81
2023/04/29 01:40:46;;;;;;;6.37;5.03;;;8.90;99.90;10.40;96494.00;;;;5047528;28;20200;-81
2023/04/29 01:43:37;;;;;;;6.93;5.50;;;8.90;99.90;10.60;96491.00;;;;5046697;28;20217;-80
2023/04/29 01:46:28;;;;;;;6.60;5.90;;;8.90;99.90;10.60;96499.00;;;;5047807;28;20220;-80
2023/04/29 01:49:17;;;;;;;8.83;5.43;;;8.90;99.90;9.70;96501.00;;;;5046647;28;20227;-81
2023/04/29 01:52:05;;;;;;;5.50;5.00;;;8.80;99.90;9.50;96510.00;;;;5041043;28;20250;-81
2023/04/29 01:54:55;;;;;;;4.90;4.43;;;8.60;99.90;9.30;96502.00;;;;5036602;28;20217;-81
2023/04/29 01:57:45;;;;;;;4.80;4.10;;;8.40;99.90;9.70;96511.00;;;;5036640;28;20227;-80
2023/04/29 02:00:34;;;;;;;5.47;4.80;;;8.40;99.90;10.00;96511.00;;;;5041181;28;20205;-81
2023/04/29 02:03:22;;;;;;;6.60;5.93;;;8.40;99.90;10.00;96497.00;;;;5038967;28;20201;-81
2023/04/29 02:06:11;;;;;;;6.27;4.93;;;8.40;99.90;9.70;96494.00;;;;5044713;28;20496;-81
2023/04/29 02:09:00;;;;;;;5.57;4.97;;;8.40;99.90;9.80;96502.00;;;;5036319;28;20222;-81
2023/04/29 02:11:48;;;;;;;5.83;5.27;;;8.30;99.90;9.50;96486.00;;;;5043071;28;20215;-81
2023/04/29 02:14:38;;;;;;;4.40;4.00;;;8.30;99.90;9.20;96497.00;;;;5045255;28;20201;-81
2023/04/29 02:17:27;;;;;;;4.93;4.43;;;8.20;99.90;9.40;96497.00;;;;5039111;28;20216;-80
2023/04/29 02:20:16;;;;;;;5.30;4.43;;;8.10;99.90;9.60;96496.00;;;;5037620;28;20209;-81
2023/04/29 02:23:05;;;;;;;4.50;4.10;;;8.10;99.90;9.40;96513.00;;;;5042856;28;20496;-81
2023/04/29 02:25:54;;;;;;;5.00;4.60;;;8.10;99.90;9.60;96517.00;;;;5043041;28;20224;-81
2023/04/29 02:28:43;;;;;;;4.80;4.00;;;8.10;99.90;9.60;96512.00;;;;5043846;28;20240;-81
2023/04/29 02:31:33;;;;;;;4.47;4.07;;;8.10;99.90;9.30;96512.00;;;;5047960;28;20212;-81
2023/04/29 02:34:22;;;;;;;10.40;4.67;;;8.10;99.90;9.20;96514.00;;;;5045276;28;20247;-81
2023/04/29 02:37:11;;;;;;;4.70;4.13;;;8.00;99.90;9.40;96507.00;;;;5045293;28;20196;-80
2023/04/29 02:40:00;;;;;;;4.77;4.17;;;7.90;99.90;9.30;96523.00;;;;5038564;28;20262;-81
2023/04/29 02:42:49;;;;;;;4.90;4.40;;;7.90;99.90;9.10;96514.00;;;;5041670;28;20208;-81
2023/04/29 02:45:38;;;;;;;4.70;4.30;;;7.80;99.90;9.00;96522.00;;;;5040258;28;20233;-81
2023/04/29 02:48:28;;;;;;;4.87;4.37;;;7.80;99.90;9.10;96520.00;;;;5042659;28;20706;-81
2023/04/29 02:51:17;;;;;;;6.20;4.43;;;7.70;99.90;9.20;96526.00;;;;5036128;28;20198;-81
2023/04/29 02:54:06;;;;;;;5.10;4.37;;;7.80;99.90;9.20;96532.00;;;;5037807;28;20252;-82
2023/04/29 02:56:54;;;;;;;4.57;4.17;;;7.80;99.90;9.50;96521.00;;;;5044409;28;20225;-81
2023/04/29 02:59:43;;;;;;;4.47;3.43;;;7.80;99.90;9.60;96524.00;;;;5044900;28;20200;-81
2023/04/29 03:02:32;;;;;;;4.27;3.87;;;7.90;99.90;9.10;96518.00;;;;5040692;28;20675;-81
2023/04/29 03:05:22;;;;;;;3.87;3.50;;;7.90;99.90;8.70;96518.00;;;;5034265;28;20672;-81
2023/04/29 03:08:11;;;;;;;4.37;3.87;;;7.70;99.90;8.70;96525.00;;;;5044728;28;20247;-82
2023/04/29 03:10:59;;;;;;;4.30;3.90;;;7.20;99.90;8.50;96515.00;;;;5044023;28;20718;-82
2023/04/29 03:13:48;;;;;;;3.93;3.63;;;7.60;99.90;8.80;96514.00;;;;5042041;28;20680;-81
2023/04/29 03:16:37;;;;;;;4.63;3.23;;;7.50;99.90;8.70;96511.00;;;;5035780;28;20218;-81
2023/04/29 03:19:26;;;;;;;8.47;3.87;;;7.50;99.90;8.80;96508.00;;;;5045183;28;20596;-81
2023/04/29 03:22:16;;;;;;;4.13;3.73;;;7.50;99.90;9.00;96514.00;;;;5042540;28;20196;-81
2023/04/29 03:25:06;;;;;;;4.77;4.10;;;7.50;99.90;8.90;96516.00;;;;5041343;28;20275;-82
2023/04/29 03:27:54;;;;;;;4.00;3.60;;;7.50;99.90;8.40;96509.00;;;;5045248;28;20205;-82
2023/04/29 03:30:43;;;;;;;9.80;3.53;;;7.40;99.90;8.80;96521.00;;;;5047205;28;20667;-81
2023/04/29 03:33:32;;;;;;;3.77;3.47;;;7.40;99.90;9.00;96517.00;;;;5039162;28;20201;-81
2023/04/29 03:36:21;;;;;;;4.23;3.60;;;7.40;99.90;9.20;96511.00;;;;5040485;28;20684;-81
2023/04/29 03:39:11;;;;;;;5.00;4.50;;;7.50;99.90;9.00;96516.00;;;;5038776;28;20200;-81
2023/04/29 03:42:01;;;;;;;3.17;2.80;;;7.50;99.90;8.70;96508.00;;;;5041700;28;20200;-81
2023/04/29 03:44:50;;;;;;;3.80;3.50;;;7.50;99.90;8.70;96502.00;;;;5037844;28;20576;-81
2023/04/29 03:47:39;;;;;;;4.03;3.63;;;7.40;99.90;8.70;96503.00;;;;5033684;28;20193;-81
2023/04/29 03:50:27;;;;;;;2.60;2.40;;;7.40;99.90;8.70;96509.00;;;;5040302;28;20623;-80
2023/04/29 03:53:17;;;;;;;4.17;3.10;;;7.50;99.90;8.40;96502.00;;;;5037475;28;20225;-81
2023/04/29 03:56:08;;;;;;;3.23;2.93;;;7.50;99.90;8.50;96494.00;;;;5036595;28;20220;-82
2023/04/29 03:58:56;;;;;;;2.97;2.57;;;7.40;99.90;8.50;96499.00;;;;5036575;28;20575;-81
2023/04/29 04:01:45;;;;;;;3.63;3.33;;;7.30;99.90;8.90;96479.00;;;;5039176;28;20208;-81
2023/04/29 04:04:34;;;;;;;3.63;3.27;;;7.30;99.90;9.10;96501.00;;;;5035235;28;20209;-81
2023/04/29 04:07:22;;;;;;;3.83;3.27;;;7.40;99.90;8.80;96498.00;;;;5030781;28;20307;-81
2023/04/29 04:10:11;;;;;;;3.37;3.17;;;7.40;99.90;8.30;96500.00;;;;5041286;28;20229;-81
2023/04/29 04:13:01;;;;;;;3.10;2.67;;;7.40;99.90;8.40;96500.00;;;;5045447;28;20199;-81
2023/04/29 04:15:51;;;;;;;3.43;3.13;;;7.30;99.90;8.90;96507.00;;;;5043703;28;20228;-80
2023/04/29 04:18:40;;;;;;;3.97;3.43;;;7.40;99.90;8.80;96501.00;;;;5030390;28;20190;-81
2023/04/29 04:21:29;;;;;;;6.93;3.20;;;7.40;99.90;8.70;96501.00;;;;5034657;28;20265;-81
2023/04/29 04:24:17;;;;;;;2.77;2.53;;;7.40;99.90;8.90;96506.00;;;;5045186;28;20228;-81
2023/04/29 04:27:06;;;;;;;3.37;3.07;;;7.40;99.90;9.00;96513.00;;;;5048159;28;20228;-80
2023/04/29 04:29:56;;;;;;;3.53;2.73;;;7.40;99.90;9.00;96510.00;;;;5040316;28;20229;-81
2023/04/29 04:32:45;;;;;;;3.17;2.63;;;7.40;99.90;9.10;96513.00;;;;5038864;28;20250;-81
2023/04/29 04:35:34;;;;;;;3.20;2.90;;;7.50;99.90;9.20;96505.00;;;;5045564;28;20228;-81
2023/04/29 04:38:24;;;;;;;5.50;3.67;;;7.50;99.90;9.10;96514.00;;;;5038382;28;20216;-81
2023/04/29 04:41:13;;;;;;;5.50;2.90;;;7.60;99.90;9.20;96519.00;;;;5033073;28;20687;-81
2023/04/29 04:44:02;;;;;;;2.60;2.40;;;7.60;99.90;9.30;96517.00;;;;5037502;28;20201;-80
2023/04/29 04:46:52;;;;;;;3.10;2.83;;;7.70;99.90;9.50;96512.00;;;;5030379;28;20231;-81
2023/04/29 04:49:41;;;;;;;4.63;2.50;;;7.80;99.90;9.90;96512.00;;;;5036070;28;20201;-81
2023/04/29 04:52:30;;;;;;;3.70;3.23;;;7.90;99.90;10.00;96505.00;;;;5030108;28;20205;-81
2023/04/29 04:55:18;;;;;;;3.13;2.70;;;8.10;99.90;9.50;96515.00;;;;5043365;28;20245;-81
2023/04/29 04:58:07;;;;;;;3.47;3.10;;;8.10;99.90;9.40;96524.00;;;;5046610;28;20607;-82
2023/04/29 05:00:56;;;;;;;2.57;2.37;;;8.10;99.90;9.40;96523.00;;;;5046149;28;20212;-81
2023/04/29 05:03:46;;;;;;;3.07;2.77;;;8.10;99.90;9.60;96509.00;;;;5039901;28;20199;-81
2023/04/29 05:06:35;;;;;;;2.57;2.37;;;8.20;99.90;10.10;96514.00;;;;5034029;28;20248;-81
2023/04/29 05:09:23;;;;;;;2.57;2.37;;;8.30;99.90;10.20;96501.00;;;;5045612;28;20573;-82
2023/04/29 05:12:12;;;;;;;3.40;2.83;;;8.40;99.90;10.60;96512.00;;;;5045002;28;20227;-81
2023/04/29 05:15:01;;;;;;;3.20;3.00;;;8.60;99.90;10.80;96508.00;;;;5036656;28;20229;-81
2023/04/29 05:17:51;;;;;;;3.47;2.43;;;8.70;99.90;11.10;96508.00;;;;5037477;28;20211;-81
2023/04/29 05:20:41;;;;;;;2.43;2.03;;;8.90;99.90;11.00;96510.00;;;;5035193;28;20686;-82
2023/04/29 05:23:30;;;;;;;1.70;1.60;;;9.10;99.90;10.80;96517.00;;;;5044563;28;20284;-81
2023/04/29 05:26:18;;;;;;;2.10;1.90;;;9.10;99.90;10.60;96525.00;;;;5047869;28;20220;-82
2023/04/29 05:29:07;;;;;;;1.60;1.50;;;9.20;99.90;10.60;96522.00;;;;5032614;28;20259;-82
2023/04/29 05:31:56;;;;;;;1.57;1.47;;;9.20;99.90;10.70;96525.00;;;;5040366;28;20228;-81
2023/04/29 05:34:45;;;;;;;2.40;1.73;;;9.20;99.90;11.30;96526.00;;;;5044866;28;20365;-81
2023/04/29 05:37:35;;;;;;;1.90;1.80;;;9.40;99.90;11.60;96527.00;;;;5041299;28;20193;-82
2023/04/29 05:40:24;;;;;;;2.10;1.83;;;9.60;99.90;11.90;96538.00;;;;5041377;28;20243;-81
2023/04/29 05:43:13;;;;;;;2.30;2.20;;;9.70;99.90;12.10;96543.00;;;;5046636;28;20235;-82
2023/04/29 05:46:02;;;;;;;3.73;3.07;;;9.90;99.90;12.10;96546.00;;;;5044852;28;20224;-81
2023/04/29 05:48:50;;;;;;;6.67;5.00;;;10.00;99.90;12.30;96547.00;;;;5045373;28;20276;-81
2023/04/29 05:51:39;;;;;;;9.67;3.20;;;10.10;99.90;12.00;96550.00;;;;5047985;28;20221;-82
2023/04/29 05:54:29;;;;;;;5.17;3.37;;;10.30;99.90;12.00;96542.00;;;;5046625;28;20206;-81
2023/04/29 05:57:18;;;;;;;6.53;4.33;;;10.30;99.90;12.30;96542.00;;;;5045757;28;20204;-82
2023/04/29 06:00:09;;;;;;;5.13;4.47;;;10.50;99.90;12.70;96545.00;;;;5044893;28;20245;-82
2023/04/29 06:02:57;;;;;;;5.17;4.20;;;10.70;99.90;12.60;96545.00;;;;5045475;28;20197;-82
2023/04/29 06:05:47;;;;;;;7.90;5.40;;;10.80;99.90;12.70;96536.00;;;;5046881;28;20271;-82
2023/04/29 06:08:35;;;;;;;3.90;3.60;;;10.90;99.90;12.90;96548.00;;;;5038149;28;20196;-82
2023/04/29 06:11:26;;;;;;;5.80;4.37;;;11.00;99.90;12.70;96549.00;;;;5035849;28;20612;-82
2023/04/29 06:14:14;;;;;;;5.93;3.77;;;11.20;99.90;12.70;96550.00;;;;5043072;28;20412;-82
2023/04/29 06:17:03;;;;;;;4.90;4.40;;;11.20;99.90;13.10;96552.00;;;;5043074;28;20726;-82
2023/04/29 06:19:52;;;;;;;4.47;4.07;;;11.20;99.90;12.90;96549.00;;;;5046313;28;20262;-82
2023/04/29 06:22:41;;;;;;;3.57;3.27;;;11.30;99.90;12.90;96538.00;;;;5042446;28;20212;-82
2023/04/29 06:25:29;;;;;;;7.03;4.00;;;11.30;99.90;13.50;96553.00;;;;5041728;28;20225;-81
2023/04/29 06:28:19;;;;;;;5.63;4.30;;;11.40;99.90;13.90;96557.00;;;;5045348;28;20193;-82
2023/04/29 06:31:08;;;;;;;7.83;4.63;;;11.60;99.90;13.80;96553.00;;;;5047972;28;20216;-82
2023/04/29 06:33:57;;;;;;;7.73;5.20;;;11.70;99.90;14.20;96552.00;;;;5047201;28;20204;-82
2023/04/29 06:36:45;;;;;;;7.47;3.70;;;11.90;99.90;14.40;96552.00;;;;5042067;28;20220;-82
2023/04/29 06:39:34;;;;;;;4.30;3.87;;;12.00;99.90;14.50;96547.00;;;;5047140;28;20193;-82
2023/04/29 06:42:23;;;;;;;6.47;4.73;;;12.20;99.90;14.70;96541.00;;;;5047572;28;20611;-82
2023/04/29 06:45:13;;;;;;;5.17;4.77;;;12.40;99.90;14.90;96542.00;;;;5046132;28;20213;-82
2023/04/29 06:48:02;;;;;;;7.27;4.40;;;12.60;99.90;15.10;96542.00;;;;5040526;28;20196;-82
2023/04/29 06:50:51;;;;;;;5.57;4.13;;;12.80;99.90;15.30;96553.00;;;;5039588;28;20201;-82
2023/04/29 06:53:40;;;;;;;7.07;4.83;;;12.90;99.90;15.40;96564.00;;;;5045431;28;20200;-82
2023/04/29 06:56:28;;;;;;;5.27;3.70;;;13.10;99.90;15.50;96562.00;;;;5040983;28;20216;-82
2023/04/29 06:59:17;;;;;;;3.80;3.33;;;13.20;99.90;15.30;96557.00;;;;5050365;23;20235;-70
2023/04/29 07:02:07;;;;;;;3.63;3.27;;;13.30;99.90;15.60;96549.00;;;;5045760;28;20216;-70
2023/04/29 07:04:58;;;;;;;5.47;3.60;;;13.40;99.90;16.00;96556.00;;;;5045923;28;20606;-70
2023/04/29 07:07:47;;;;;;;3.67;2.87;;;;;16.10;96564.00;;;;5020446;28;20425;-70
2023/04/29 07:10:36;;;;;;;6.13;3.27;;;;;16.50;96556.00;;;;5024952;28;20201;-71
2023/04/29 07:13:25;;;;;;;4.07;3.67;;;;;16.50;96543.00;;;;5018695;28;20240;-71
2023/04/29 07:16:19;;;;;;;4.00;2.57;;;;;16.90;96540.00;;;;5029953;28;20284;-70
2023/04/29 07:19:10;;;;;;;3.93;3.53;;;;;16.70;96547.00;;;;5019398;28;20198;-71
2023/04/29 07:21:59;;;;;;;4.77;3.20;;;;;16.20;96544.00;;;;5021043;28;20795;-71
2023/04/29 07:24:48;;;;;;;6.67;3.60;;;;;16.80;96556.00;;;;5028110;28;21175;-71
2023/04/29 07:27:37;;;;;;;4.83;3.10;;;;;17.20;96558.00;;;;5027949;28;20819;-71
2023/04/29 07:30:26;;;;;;;4.37;2.60;;;;;17.60;96555.00;;;;5027971;28;20201;-71
2023/04/29 07:33:15;;;;;;;3.57;2.40;;;;;17.80;96554.00;;;;5025433;28;20228;-70
2023/04/29 07:36:07;;;;;;;3.63;2.90;;;;;18.10;96561.00;;;;5023571;28;20233;-71
2023/04/29 07:38:56;;;;;;;3.57;2.27;;;;;18.40;96553.00;;;;5028609;28;20208;-71
2023/04/29 07:41:45;;;;;;;5.43;2.57;;;;;18.60;96559.00;;;;5026202;28;20221;-70
2023/04/29 07:44:35;;;;;;;2.77;2.40;;;;;18.80;96564.00;;;;5025925;28;20283;-71
2023/04/29 07:47:24;;;;;;;2.63;2.43;;;;;19.10;96554.00;;;;5026860;28;20244;-71
2023/04/29 07:50:13;;;;;;;3.63;2.13;;;;;19.40;96571.00;;;;5015837;28;20216;-70
2023/04/29 07:53:03;;;;;;;3.13;2.90;;;;;19.60;96561.00;;;;5022208;28;20612;-71
2023/04/29 07:55:52;;;;;;;2.27;2.07;;;;;19.80;96574.00;;;;5021444;28;20237;-71
2023/04/29 07:58:41;;;;;;;2.37;2.07;;;;;20.30;96565.00;;;;5024396;28;20213;-71
2023/04/29 08:01:31;;;;;;;4.57;2.00;;;;;20.30;96588.00;;;;5024498;28;20205;-71
2023/04/29 08:04:20;;;;;;;2.20;1.70;;;;;19.40;96581.00;;;;5024261;28;20205;-72
2023/04/29 08:07:09;;;;;;;1.73;1.63;;;;;18.90;96584.00;;;;5020450;28;20240;-71
2023/04/29 08:10:00;;;;;;;2.27;1.87;;;;;18.70;96593.00;;;;5023294;28;20209;-71
2023/04/29 08:12:49;;;;;;;2.70;1.53;;;;;18.40;96590.00;;;;5029041;28;20307;-73
2023/04/29 08:15:38;;;;;;;3.37;2.83;;;;;18.50;96590.00;;;;5032312;28;20719;-72
2023/04/29 08:18:27;;;;;;;4.93;1.97;;;;;18.40;96595.00;;;;5028016;28;20221;-71
2023/04/29 08:21:16;;;;;;;2.10;1.83;;;;;18.60;96596.00;;;;5029187;28;20204;-72
2023/04/29 08:24:05;;;;;;;2.47;1.50;;;;;18.00;96604.00;;;;5029523;28;20394;-72
2023/04/29 08:26:57;;;;;;;1.17;1.00;;;;;18.00;96595.00;;;;5031844;28;20217;-74
2023/04/29 08:29:46;;;;;;;1.53;1.10;;;;;18.30;96607.00;;;;5033649;28;20213;-73
2023/04/29 08:32:35;;;;;;;7.67;2.60;;;;;18.30;96612.00;;;;5035485;28;20710;-73
2023/04/29 08:35:24;;;;;;;3.30;2.23;;;;;18.50;96620.00;;;;5032416;28;20213;-73
2023/04/29 08:38:13;;;;;;;2.13;1.93;;;;;18.80;96615.00;;;;5032061;28;20586;-72
2023/04/29 08:41:02;;;;;;;4.40;2.13;;;;;18.90;96615.00;;;;5027196;28;20209;-72
2023/04/29 08:43:53;;;;;;;2.10;1.80;;;;;19.00;96590.00;;;;5033425;28;20204;-71
2023/04/29 08:46:42;;;;;;;2.43;2.03;;;;;19.10;96617.00;;;;5031178;28;20649;-72
2023/04/29 08:49:32;;;;;;;1.43;1.33;;;;;19.40;96605.00;;;;5024610;28;20670;-73
2023/04/29 08:52:22;;;;;;;1.53;1.17;;;;;19.00;96613.00;;;;5025324;28;20214;-73
2023/04/29 08:55:11;;;;;;;1.60;1.23;;;;;19.50;96607.00;;;;5024133;28;20202;-72
2023/04/29 08:58:01;;;;;;;1.60;1.30;;;;;19.50;96616.00;;;;5025845;28;20216;-72
2023/04/29 09:00:51;;;;;;;2.00;1.60;;;;;19.90;96593.00;;;;5024835;28;20216;-72
2023/04/29 09:03:45;;;;;;;1.00;0.90;;;;;20.80;96600.00;;;;5031418;28;20201;-72
2023/04/29 09:06:34;;;;;;;2.40;1.27;;;;;20.70;96584.00;;;;5041185;28;20272;-72
2023/04/29 09:09:24;;;;;;;2.80;1.00;;;;;21.20;96573.00;;;;5043217;28;20295;-71
2023/04/29 09:12:13;;;;;;;3.87;1.10;;;;;20.80;96586.00;;;;5034623;28;20228;-72
2023/04/29 09:15:02;;;;;;;1.50;1.07;;;;;20.90;96578.00;;;;5030777;28;20668;-71
2023/04/29 09:17:52;;;;;;;2.13;1.50;;;;;21.90;96582.00;;;;5023779;28;20247;-71
2023/04/29 09:20:41;;;;;;;1.50;1.20;;;;;21.90;96564.00;;;;5027156;28;20201;-71
2023/04/29 09:23:38;;;;;;;2.80;1.17;;;;;21.80;96592.00;;;;5027330;28;20583;-72
2023/04/29 09:26:27;;;;;;;0.70;0.67;;;;;21.70;96562.00;;;;5035483;28;20224;-72
2023/04/29 09:29:17;;;;;;;1.53;1.43;;;;;21.80;96560.00;;;;5035261;28;20201;-71
2023/04/29 09:32:20;;;;;;;1.43;1.17;;;;;22.20;96562.00;;;;5039242;28;20208;-71
2023/04/29 09:35:28;;;;;;;2.10;0.80;;;;;23.40;96550.00;;;;5030695;28;20224;-71
2023/04/29 09:38:17;;;;;;;1.27;0.90;;;;;22.80;96535.00;;;;5028585;28;20342;-72
2023/04/29 09:41:10;;;;;;;21.37;5.80;;;20.70;99.90;23.30;96564.00;;;;5030067;28;20212;-72
2023/04/29 09:44:06;;;;;;;10.53;2.93;;;20.70;99.90;21.50;96571.00;;;;5027121;28;20628;-71
2023/04/29 09:46:57;;;;;;;1.30;1.20;;;20.50;99.90;22.30;96573.00;;;;5030910;28;20244;-72
2023/04/29 09:49:47;;;;;;;0.97;0.90;;;20.30;99.90;22.40;96560.00;;;;5030908;28;20212;-72
2023/04/29 09:52:42;;;;;;;1.23;0.90;;;20.30;99.90;21.50;96579.00;;;;5029409;28;20230;-71
2023/04/29 09:55:31;;;;;;;0.90;0.87;;;20.10;99.40;22.40;96559.00;;;;5041287;28;20291;-72
2023/04/29 09:58:29;;;;;;;1.00;0.80;;;20.10;99.90;23.30;96543.00;;;;5041248;28;20197;-72
2023/04/29 10:01:20;;;;;;;2.00;1.03;;;20.40;99.90;24.60;96539.00;;;;5024985;28;20213;-72
2023/04/29 10:04:11;;;;;;;1.33;1.07;;;20.90;99.90;24.70;96536.00;;;;5023963;28;20206;-70
2023/04/29 10:07:01;;;;;;;0.67;0.63;;;21.50;99.90;24.50;96554.00;;;;5032503;28;20271;-70
2023/04/29 10:09:51;;;;;;;8.43;1.80;;;21.90;98.50;23.40;96560.00;;;;5032983;28;20198;-69
2023/04/29 10:12:41;;;;;;;1.47;0.90;;;21.70;97.80;23.50;96566.00;;;;5026873;28;20229;-69
2023/04/29 10:15:38;;;;;;;0.90;0.90;;;21.60;97.40;23.80;96565.00;;;;5032220;28;20263;-70
2023/04/29 10:18:35;;;;;;;1.57;0.93;;;21.50;97.70;22.50;96559.00;;;;5049495;28;20196;-70
2023/04/29 10:21:30;;;;;;;2.47;1.37;;;21.20;96.70;22.80;96552.00;;;;5021111;28;20193;-71
2023/04/29 10:24:19;;;;;;;1.20;1.03;;;20.90;97.60;22.60;96550.00;;;;5012374;28;20202;-70
2023/04/29 10:27:12;;;;;;;2.70;2.50;;;20.70;97.00;23.10;96520.00;;;;5027775;28;20735;-70
2023/04/29 10:30:03;;;;;;;1.27;1.07;;;20.80;96.60;24.30;96510.00;;;;5026323;28;20229;-72
2023/04/29 10:32:52;;;;;;;1.17;0.90;;;21.10;96.80;24.60;96516.00;;;;5024431;28;20224;-71
2023/04/29 10:35:43;;;;;;;1.10;0.83;;;21.40;96.60;24.90;96525.00;;;;5021658;28;20218;-71
2023/04/29 10:38:39;;;;;;;1.20;1.10;;;21.70;96.50;24.30;96532.00;;;;5024256;28;20267;-71
2023/04/29 10:41:32;;;;;;;2.87;0.97;;;21.80;95.70;23.60;96523.00;;;;5018208;28;20722;-70
2023/04/29 10:44:22;;;;;;;1.80;1.10;;;21.70;94.80;24.90;96476.00;;;;5041106;28;20205;-71
2023/04/29 10:47:29;;;;;;;0.83;0.80;;;21.90;94.30;24.90;96485.00;;;;5022276;28;20218;-71
2023/04/29 10:50:18;;;;;;;2.20;0.70;;;22.20;94.60;25.90;96468.00;;;;5034753;28;20200;-71
2023/04/29 10:53:07;;;;;;;1.73;0.90;;;22.50;93.90;25.20;96474.00;;;;5045198;28;20236;-71
2023/04/29 10:56:00;;;;;;;0.60;0.47;;;22.70;92.50;25.80;96515.00;;;;5022527;28;20585;-71
2023/04/29 10:58:48;;;;;;;0.73;0.73;;;22.90;93.10;24.70;96516.00;;;;5016312;28;20268;-71
2023/04/29 11:01:52;;;;;;;0.70;0.53;;;22.90;91.80;23.90;96493.00;;;;5032973;28;20286;-71
2023/04/29 11:05:09;;;;;;;0.87;0.77;;;22.50;91.20;25.80;96449.00;;;;5038354;28;20196;-72
2023/04/29 11:08:11;;;;;;;0.80;0.60;;;22.60;91.50;27.50;96499.00;;;;5027803;28;20197;-72
2023/04/29 11:11:01;;;;;;;0.57;0.57;;;23.30;92.00;26.70;96511.00;;;;5038607;28;20196;-72
2023/04/29 11:13:50;;;;;;;2.00;0.60;;;23.60;90.30;24.30;96513.00;;;;5018858;28;20222;-71
2023/04/29 11:16:47;;;;;;;1.97;0.80;;;23.40;86.60;22.90;96514.00;;;;5021118;28;20303;-68
2023/04/29 11:19:41;;;;;;;3.87;0.60;;;22.80;86.90;22.90;96512.00;;;;5018284;28;20198;-71
2023/04/29 11:22:32;;;;;;;1.43;0.80;;;22.00;86.40;22.70;96510.00;;;;5021935;28;20209;-70
2023/04/29 11:25:22;;;;;;;0.60;0.60;;;21.60;89.00;21.90;96523.00;;;;5035311;28;20201;-72
2023/04/29 11:28:11;;;;;;;0.60;0.60;;;21.10;89.70;21.30;96535.00;;;;5028603;28;20198;-70
2023/04/29 11:31:02;;;;;;;0.40;0.40;;;20.50;90.30;21.30;96526.00;;;;5025407;28;20193;-70
2023/04/29 11:33:51;;;;;;;0.40;0.40;;;20.00;87.80;21.60;96525.00;;;;5027009;28;20224;-71
2023/04/29 11:36:41;;;;;;;0.30;0.30;;;19.70;88.00;19.60;96491.00;;;;5027310;28;20267;-62
2023/04/29 11:39:30;;;;;;;1.43;0.60;;;19.40;90.10;20.40;96500.00;;;;5028900;28;20209;-69
2023/04/29 11:42:22;;;;;;;0.73;0.50;;;19.10;91.00;21.00;96510.00;;;;5037540;28;20220;-68
2023/04/29 11:45:12;;;;;;;0.60;0.60;;;19.10;91.40;20.70;96431.00;;;;5030730;28;20259;-67
2023/04/29 11:48:01;;;;;;;1.90;0.60;;;19.10;92.60;22.00;96433.00;;;;5023021;28;20193;-67
2023/04/29 11:50:52;;;;;;;0.40;0.40;;;19.70;94.10;23.10;96438.00;;;;5037924;28;20196;-68
2023/04/29 11:53:42;;;;;;;1.07;0.60;;;20.10;94.70;23.20;96444.00;;;;5024129;28;20237;-68
2023/04/29 11:56:31;;;;;;;0.60;0.50;;;20.70;91.50;24.20;96430.00;;;;5021239;28;20240;-68
2023/04/29 11:59:20;;;;;;;2.27;1.30;;;21.10;92.20;25.50;96448.00;;;;5021971;28;20217;-70
2023/04/29 12:02:12;;;;;;;3.47;2.57;;;21.70;91.50;26.30;96446.00;;;;5018827;28;20249;-69
2023/04/29 12:05:07;;;;;;;3.50;1.10;;;22.40;99.90;27.20;96439.00;;;;5023410;28;20205;-70
2023/04/29 12:07:56;;;;;;;5.60;0.70;;;;;26.00;96438.00;;;;5020569;28;20204;-69
2023/04/29 12:10:48;;;;;;;0.43;0.33;;;;;25.30;96430.00;;;;5019247;28;20205;-69
2023/04/29 12:13:37;;;;;;;5.00;2.77;;;;;27.20;96432.00;;;;5026518;28;20252;-70
2023/04/29 12:16:28;;;;;;;0.57;0.40;;;;;26.70;96434.00;;;;5024327;28;20737;-69
2023/04/29 12:19:17;;;;;;;6.00;2.43;;;;;28.10;96430.00;;;;5018986;28;20686;-68
2023/04/29 12:22:06;;;;;;;13.70;7.20;;;;;28.60;96423.00;;;;5020853;28;20212;-69
2023/04/29 12:24:58;;;;;;;4.37;1.83;;;;;28.90;96427.00;;;;5022239;28;20631;-70
2023/04/29 12:27:49;;;;;;;1.67;1.27;;;;;28.80;96423.00;;;;5016823;28;20247;-70
2023/04/29 12:30:38;;;;;;;1.73;1.03;;;;;27.40;96476.00;;;;5016800;28;20213;-69
2023/04/29 12:33:28;;;;;;;1.20;0.70;;;;;29.20;96414.00;;;;5019940;28;20382;-69
2023/04/29 12:36:18;;;;;;;1.90;1.33;;;;;29.30;96402.00;;;;5017729;28;20630;-69
2023/04/29 12:39:09;;;;;;;1.33;0.47;;;;;27.50;96390.00;;;;5009984;28;20264;-69
2023/04/29 12:41:59;;;;;;;1.00;0.50;;;;;28.90;96471.00;;;;5020283;28;20252;-69
2023/04/29 12:44:49;;;;;;;0.50;0.50;;;;;26.90;96463.00;;;;5019952;28;20230;-70
2023/04/29 12:47:40;;;;;;;1.83;1.33;;;;;26.90;96468.00;;;;5015788;28;20238;-69
2023/04/29 12:50:33;;;;;;;7.17;3.70;;;;;26.30;96445.00;;;;5028577;28;20206;-70
2023/04/29 12:53:25;;;;;;;2.90;1.23;;;;;26.10;96459.00;;;;5044574;28;20548;-69
2023/04/29 12:56:14;;;;;;;1.13;0.70;;;;;24.90;96457.00;;;;5017350;28;20222;-70
2023/04/29 12:59:07;;;;;;;1.87;0.50;;;;;24.00;96456.00;;;;5023026;28;20278;-73
2023/04/29 13:01:57;;;;;;;1.67;0.50;;;;;24.20;96451.00;;;;5023442;28;20207;-73
2023/04/29 13:04:46;;;;;;;1.80;0.50;;;;;23.70;96452.00;;;;5025033;28;20461;-71